Time;durP1;ratioP1;P1;durP2;ratioP2;P2;SDS_P1;SDS_P2;PMS_P1;PMS_P2;Temp;Humidity;BMP_temperature;BMP_pressure;BME280_temperature;BME280_humidity;BME280_pressure;Samples;Min_cycle;Max_cycle;Signal;HPM_P1;HPM_P2
2022/03/07 00:01:57;;;;;;;6.13;3.67;;;1.40;99.90;;;;;;5064189;28;20401;-71
2022/03/07 00:04:22;;;;;;;7.40;3.72;;;1.30;99.90;;;;;;5064396;28;20036;-71
2022/03/07 00:06:48;;;;;;;5.80;2.97;;;1.30;99.90;;;;;;5063964;28;20052;-72
2022/03/07 00:09:15;;;;;;;6.80;2.72;;;1.30;99.90;;;;;;5064760;28;20037;-71
2022/03/07 00:11:41;;;;;;;5.68;3.03;;;1.30;99.90;;;;;;5062407;28;20045;-71
2022/03/07 00:14:07;;;;;;;4.03;2.83;;;1.30;99.90;;;;;;5061674;28;20476;-71
2022/03/07 00:16:32;;;;;;;7.45;3.72;;;1.40;99.90;;;;;;5063877;28;20050;-71
2022/03/07 00:18:59;;;;;;;5.53;3.10;;;1.30;99.90;;;;;;5063649;28;20045;-71
2022/03/07 00:21:25;;;;;;;6.70;3.17;;;1.30;99.90;;;;;;5063827;28;20132;-71
2022/03/07 00:23:51;;;;;;;5.35;3.50;;;1.40;99.90;;;;;;5065980;28;20094;-71
2022/03/07 00:26:17;;;;;;;6.03;2.92;;;1.30;99.90;;;;;;5063197;28;20036;-71
2022/03/07 00:28:44;;;;;;;7.63;4.28;;;1.20;99.90;;;;;;5062417;28;20102;-71
2022/03/07 00:31:10;;;;;;;10.07;4.07;;;1.10;99.90;;;;;;5093188;28;20052;-71
2022/03/07 00:33:36;;;;;;;4.30;3.22;;;1.00;99.90;;;;;;5063342;28;20047;-71
2022/03/07 00:36:03;;;;;;;4.40;3.13;;;1.10;99.90;;;;;;5059174;28;20040;-71
2022/03/07 00:38:28;;;;;;;5.80;4.00;;;1.10;99.90;;;;;;5063049;28;20063;-71
2022/03/07 00:40:54;;;;;;;5.10;3.50;;;1.30;99.90;;;;;;5060439;28;20783;-71
2022/03/07 00:43:21;;;;;;;7.10;4.28;;;1.10;99.90;;;;;;5066455;28;20044;-71
2022/03/07 00:45:47;;;;;;;6.10;3.47;;;1.20;99.90;;;;;;5065820;28;20037;-71
2022/03/07 00:48:13;;;;;;;6.10;3.75;;;1.10;99.90;;;;;;5066660;28;20113;-71
2022/03/07 00:50:42;;;;;;;7.85;3.90;;;1.10;99.90;;;;;;5069086;28;21033;-71
2022/03/07 00:53:15;;;;;;;5.07;3.08;;;1.10;99.90;;;;;;5068690;28;20056;-71
2022/03/07 00:55:40;;;;;;;7.00;3.58;;;1.10;99.90;;;;;;5094977;28;20631;-71
2022/03/07 00:58:06;;;;;;;4.57;3.30;;;1.10;99.90;;;;;;5068877;28;20028;-71
2022/03/07 01:00:33;;;;;;;9.13;3.72;;;1.00;99.90;;;;;;5048984;28;20040;-71
2022/03/07 01:02:59;;;;;;;6.32;4.30;;;1.10;99.90;;;;;;5065907;28;20048;-71
2022/03/07 01:05:25;;;;;;;5.20;3.88;;;1.10;99.90;;;;;;5066378;28;20040;-71
2022/03/07 01:07:51;;;;;;;5.50;3.67;;;0.90;99.90;;;;;;5068247;28;20040;-71
2022/03/07 01:10:16;;;;;;;4.78;3.13;;;0.90;99.90;;;;;;5067464;28;20037;-71
2022/03/07 01:12:42;;;;;;;7.70;3.35;;;0.90;99.90;;;;;;5067920;28;20047;-71
2022/03/07 01:15:09;;;;;;;4.63;3.72;;;1.10;99.90;;;;;;5065998;28;20037;-71
2022/03/07 01:17:36;;;;;;;5.80;4.03;;;0.90;99.90;;;;;;5062828;28;20044;-71
2022/03/07 01:20:03;;;;;;;4.53;3.45;;;0.80;99.90;;;;;;5065455;28;20047;-71
2022/03/07 01:22:29;;;;;;;4.20;3.38;;;0.60;99.90;;;;;;5063182;28;20044;-71
2022/03/07 01:24:54;;;;;;;4.72;3.90;;;0.70;99.90;;;;;;5094309;28;20512;-71
2022/03/07 01:27:20;;;;;;;5.28;4.30;;;0.70;99.90;;;;;;5065273;28;20047;-71
2022/03/07 01:29:46;;;;;;;8.05;4.65;;;0.60;99.90;;;;;;5065172;28;20033;-71
2022/03/07 01:32:11;;;;;;;7.30;4.47;;;0.70;99.90;;;;;;5069331;28;20032;-71
2022/03/07 01:34:37;;;;;;;8.07;4.90;;;0.80;99.90;;;;;;5087804;28;20111;-71
2022/03/07 01:37:03;;;;;;;9.45;4.38;;;0.70;99.90;;;;;;5066956;28;20505;-71
2022/03/07 01:39:28;;;;;;;5.93;4.25;;;0.70;99.90;;;;;;5066755;28;20040;-71
2022/03/07 01:41:54;;;;;;;5.90;3.47;;;0.70;99.90;;;;;;5063878;28;20040;-71
2022/03/07 01:44:24;;;;;;;6.75;4.32;;;0.70;99.90;;;;;;5064144;28;20060;-71
2022/03/07 01:46:50;;;;;;;8.88;4.78;;;0.90;99.90;;;;;;5065773;28;20597;-71
2022/03/07 01:49:16;;;;;;;7.78;4.60;;;0.80;99.90;;;;;;5062032;28;20063;-71
2022/03/07 01:51:44;;;;;;;9.18;4.35;;;0.60;99.90;;;;;;5064901;28;20505;-71
2022/03/07 01:54:12;;;;;;;6.00;3.92;;;0.60;99.90;;;;;;5060402;28;20800;-71
2022/03/07 01:56:38;;;;;;;6.53;4.28;;;0.50;99.90;;;;;;5050759;28;20043;-71
2022/03/07 01:59:04;;;;;;;7.95;4.78;;;0.50;99.90;;;;;;5053257;28;20040;-71
2022/03/07 02:01:31;;;;;;;10.48;4.38;;;0.50;99.90;;;;;;5052172;28;20052;-71
2022/03/07 02:03:57;;;;;;;9.38;4.78;;;0.60;99.90;;;;;;5058361;28;20132;-71
2022/03/07 02:06:24;;;;;;;9.20;5.90;;;0.50;99.90;;;;;;5050090;28;20054;-71
2022/03/07 02:08:51;;;;;;;5.80;4.30;;;0.50;99.90;;;;;;5046965;28;20487;-71
2022/03/07 02:11:17;;;;;;;6.95;4.47;;;0.40;99.90;;;;;;5061549;28;20491;-71
2022/03/07 02:13:43;;;;;;;7.68;4.63;;;0.40;99.90;;;;;;5059129;28;20082;-71
2022/03/07 02:16:09;;;;;;;7.85;4.57;;;0.40;99.90;;;;;;5064723;28;20036;-71
2022/03/07 02:18:35;;;;;;;14.05;4.63;;;0.40;99.90;;;;;;5061257;28;20052;-70
2022/03/07 02:21:09;;;;;;;5.07;3.83;;;0.40;99.90;;;;;;5070195;28;20119;-71
2022/03/07 02:23:36;;;;;;;6.68;4.40;;;0.40;99.90;;;;;;5065470;28;20048;-70
2022/03/07 02:26:13;;;;;;;7.43;4.50;;;0.30;99.90;;;;;;5048740;28;20045;-71
2022/03/07 02:28:40;;;;;;;9.90;4.30;;;0.20;99.90;;;;;;5065302;28;20044;-71
2022/03/07 02:31:05;;;;;;;7.82;4.30;;;0.20;99.90;;;;;;5065532;28;20048;-71
2022/03/07 02:33:32;;;;;;;9.00;4.70;;;0.20;99.90;;;;;;5062655;28;20580;-71
2022/03/07 02:35:57;;;;;;;7.78;4.85;;;0.10;99.90;;;;;;5062884;28;20076;-71
2022/03/07 02:38:23;;;;;;;6.57;4.93;;;0.00;99.90;;;;;;5061542;28;20132;-71
2022/03/07 02:40:49;;;;;;;8.32;4.95;;;0.00;99.90;;;;;;5081137;28;20046;-70
2022/03/07 02:43:15;;;;;;;10.85;4.53;;;0.00;99.90;;;;;;5063388;28;20067;-71
2022/03/07 02:45:41;;;;;;;7.18;4.35;;;-0.10;99.90;;;;;;5060471;28;20615;-71
2022/03/07 02:48:07;;;;;;;6.30;4.00;;;0.00;99.90;;;;;;5062346;28;20040;-71
2022/03/07 02:50:33;;;;;;;8.88;5.00;;;0.00;99.90;;;;;;5062721;28;20077;-70
2022/03/07 02:52:58;;;;;;;6.22;4.75;;;0.00;99.90;;;;;;5062341;28;20085;-71
2022/03/07 02:55:24;;;;;;;7.25;4.80;;;0.00;99.90;;;;;;5060194;28;20686;-70
2022/03/07 02:57:50;;;;;;;8.43;4.93;;;0.00;99.90;;;;;;5081981;28;20491;-71
2022/03/07 03:00:16;;;;;;;6.50;4.68;;;0.10;99.90;;;;;;5064300;28;20049;-70
2022/03/07 03:02:41;;;;;;;6.22;5.13;;;0.00;99.90;;;;;;5061406;28;20052;-71
2022/03/07 03:05:08;;;;;;;7.82;5.43;;;0.10;99.90;;;;;;5063279;28;20046;-70
2022/03/07 03:07:34;;;;;;;9.10;4.43;;;0.00;99.90;;;;;;5064243;28;20410;-71
2022/03/07 03:10:00;;;;;;;9.43;4.70;;;0.10;99.90;;;;;;5060130;28;20052;-71
2022/03/07 03:12:26;;;;;;;7.32;4.85;;;0.00;99.90;;;;;;5063996;28;20044;-70
2022/03/07 03:14:53;;;;;;;9.68;5.05;;;-0.10;99.90;;;;;;5062606;28;20467;-71
2022/03/07 03:17:19;;;;;;;8.10;4.55;;;-0.10;99.90;;;;;;5059935;28;20040;-70
2022/03/07 03:19:45;;;;;;;10.70;6.10;;;-0.20;99.90;;;;;;5062753;28;20390;-71
2022/03/07 03:22:10;;;;;;;8.50;5.35;;;-0.10;99.90;;;;;;5066811;28;20073;-71
2022/03/07 03:24:37;;;;;;;7.43;4.63;;;-0.20;99.90;;;;;;5062774;28;20044;-70
2022/03/07 03:27:04;;;;;;;10.23;5.93;;;-0.20;99.90;;;;;;5063968;28;20117;-70
2022/03/07 03:29:30;;;;;;;11.52;5.40;;;-0.30;99.90;;;;;;5063569;28;20616;-71
2022/03/07 03:31:56;;;;;;;9.52;5.00;;;-0.30;99.90;;;;;;5063925;28;20136;-70
2022/03/07 03:34:21;;;;;;;7.00;4.57;;;-0.20;99.90;;;;;;5065375;28;20044;-70
2022/03/07 03:36:47;;;;;;;6.63;4.60;;;-0.20;99.90;;;;;;5062351;28;20036;-71
2022/03/07 03:39:13;;;;;;;7.93;5.07;;;0.10;99.90;;;;;;5064768;28;20041;-71
2022/03/07 03:41:38;;;;;;;7.45;5.00;;;-0.30;99.90;;;;;;5065524;28;20024;-71
2022/03/07 03:44:04;;;;;;;8.70;5.00;;;-0.20;99.90;;;;;;5066306;28;20364;-70
2022/03/07 03:46:30;;;;;;;7.03;4.88;;;-0.30;99.90;;;;;;5063001;28;20044;-71
2022/03/07 03:48:56;;;;;;;10.38;4.57;;;-0.40;99.90;;;;;;5064127;28;20398;-70
2022/03/07 03:51:21;;;;;;;6.18;4.13;;;-0.40;99.90;;;;;;5064149;28;20044;-71
2022/03/07 03:53:47;;;;;;;10.43;5.63;;;-0.40;99.90;;;;;;5063235;28;20051;-70
2022/03/07 03:56:12;;;;;;;7.40;4.80;;;-0.40;99.90;;;;;;5061866;28;20051;-71
2022/03/07 03:58:38;;;;;;;8.40;5.30;;;-0.50;99.90;;;;;;5062545;28;20043;-70
2022/03/07 04:01:04;;;;;;;7.45;4.50;;;-0.40;99.90;;;;;;5062010;28;20112;-70
2022/03/07 04:03:30;;;;;;;9.23;5.35;;;-0.40;99.90;;;;;;5065079;28;20234;-71
2022/03/07 04:05:55;;;;;;;6.35;4.88;;;-0.50;99.90;;;;;;5062077;28;20048;-70
2022/03/07 04:08:22;;;;;;;7.68;4.25;;;-0.40;99.90;;;;;;5093711;28;20036;-71
2022/03/07 04:10:48;;;;;;;9.15;4.75;;;-0.50;99.90;;;;;;5062463;28;20040;-71
2022/03/07 04:13:13;;;;;;;7.70;4.82;;;-0.50;99.90;;;;;;5064056;28;20047;-70
2022/03/07 04:15:39;;;;;;;6.78;4.78;;;-0.50;99.90;;;;;;5063391;28;20037;-70
2022/03/07 04:18:06;;;;;;;7.93;5.00;;;-0.60;99.90;;;;;;5068031;28;20984;-70
2022/03/07 04:20:32;;;;;;;6.15;4.88;;;-0.60;99.90;;;;;;5069807;28;20036;-71
2022/03/07 04:22:59;;;;;;;7.55;5.57;;;-0.50;99.90;;;;;;5066846;28;20047;-70
2022/03/07 04:25:24;;;;;;;8.65;4.80;;;-0.60;99.90;;;;;;5072375;28;20063;-70
2022/03/07 04:27:50;;;;;;;10.43;4.85;;;-0.40;99.90;;;;;;5066609;28;20751;-70
2022/03/07 04:30:15;;;;;;;7.57;4.28;;;-0.60;99.90;;;;;;5066364;28;20151;-70
2022/03/07 04:32:41;;;;;;;7.65;4.45;;;-0.50;99.90;;;;;;5068252;28;20052;-70
2022/03/07 04:35:09;;;;;;;5.93;4.45;;;-0.60;99.90;;;;;;5067270;28;21704;-70
2022/03/07 04:37:37;;;;;;;8.95;4.80;;;-0.50;99.90;;;;;;5064752;28;20044;-71
2022/03/07 04:40:04;;;;;;;10.00;4.95;;;-0.60;99.90;;;;;;5079369;28;20040;-71
2022/03/07 04:42:29;;;;;;;10.95;4.75;;;-0.60;99.90;;;;;;5069927;28;20380;-70
2022/03/07 04:44:55;;;;;;;7.78;4.93;;;-0.60;99.90;;;;;;5068105;28;20039;-70
2022/03/07 04:47:20;;;;;;;10.18;5.10;;;-0.60;99.90;;;;;;5067350;28;20048;-70
2022/03/07 04:49:46;;;;;;;8.13;5.32;;;-0.60;99.90;;;;;;5064007;28;20044;-71
2022/03/07 04:52:11;;;;;;;8.77;4.88;;;-0.70;99.90;;;;;;5066680;28;20071;-70
2022/03/07 04:54:38;;;;;;;8.07;4.30;;;-0.60;99.90;;;;;;5068447;28;20052;-71
2022/03/07 04:57:04;;;;;;;10.82;4.80;;;-0.70;99.90;;;;;;5067228;28;20078;-70
2022/03/07 04:59:30;;;;;;;7.07;5.20;;;-0.50;99.90;;;;;;5067247;28;20339;-71
2022/03/07 05:01:56;;;;;;;8.38;5.15;;;-0.70;99.90;;;;;;5065494;28;20064;-70
2022/03/07 05:04:21;;;;;;;7.32;4.72;;;-0.70;99.90;;;;;;5070359;28;20090;-71
2022/03/07 05:06:47;;;;;;;9.93;5.10;;;-0.60;99.90;;;;;;5068076;28;20044;-70
2022/03/07 05:09:12;;;;;;;7.18;5.15;;;-0.60;99.90;;;;;;5069882;28;20041;-70
2022/03/07 05:11:38;;;;;;;11.43;5.60;;;-0.60;99.90;;;;;;5067841;28;20028;-71
2022/03/07 05:14:07;;;;;;;12.88;6.38;;;-0.60;99.90;;;;;;5067876;28;20033;-71
2022/03/07 05:16:33;;;;;;;10.90;6.00;;;-0.60;99.90;;;;;;5071549;28;20109;-70
2022/03/07 05:18:58;;;;;;;9.77;6.22;;;-0.50;99.90;;;;;;5070670;28;20612;-71
2022/03/07 05:21:24;;;;;;;12.00;6.03;;;-0.50;99.90;;;;;;5070509;28;20032;-71
2022/03/07 05:23:50;;;;;;;12.10;6.45;;;-0.50;99.90;;;;;;5068882;28;20044;-70
2022/03/07 05:26:15;;;;;;;9.35;6.75;;;-0.50;99.90;;;;;;5100312;28;20098;-70
2022/03/07 05:28:41;;;;;;;9.45;6.07;;;-0.50;99.90;;;;;;5067722;28;20056;-70
2022/03/07 05:31:09;;;;;;;11.80;6.65;;;-0.50;99.90;;;;;;5064711;28;20036;-70
2022/03/07 05:33:34;;;;;;;13.52;7.38;;;-0.50;99.90;;;;;;5068398;28;20432;-70
2022/03/07 05:36:00;;;;;;;8.27;6.72;;;-0.60;99.90;;;;;;5067178;28;20127;-70
2022/03/07 05:38:26;;;;;;;8.88;7.13;;;-0.50;99.90;;;;;;5068754;28;20028;-71
2022/03/07 05:40:51;;;;;;;10.90;6.55;;;-0.60;99.90;;;;;;5067377;28;20055;-70
2022/03/07 05:43:17;;;;;;;6.75;5.75;;;-0.50;99.90;;;;;;5067210;28;20048;-71
2022/03/07 05:45:43;;;;;;;7.53;5.78;;;-0.60;99.90;;;;;;5068424;28;20515;-70
2022/03/07 05:48:08;;;;;;;7.22;5.78;;;-0.50;99.90;;;;;;5068147;28;20040;-71
2022/03/07 05:50:34;;;;;;;13.10;6.45;;;-0.50;99.90;;;;;;5067269;28;20066;-70
2022/03/07 05:53:00;;;;;;;8.45;6.80;;;-0.50;99.90;;;;;;5065103;28;20040;-71
2022/03/07 05:55:26;;;;;;;9.48;7.50;;;-0.60;99.90;;;;;;5065868;28;20044;-70
2022/03/07 05:57:51;;;;;;;9.68;7.60;;;-0.60;99.90;;;;;;5067575;28;20033;-70
2022/03/07 06:00:17;;;;;;;12.05;7.55;;;-0.60;99.90;;;;;;5065136;28;20119;-70
2022/03/07 06:02:43;;;;;;;7.75;6.25;;;-0.60;99.90;;;;;;5063041;28;20086;-70
2022/03/07 06:05:09;;;;;;;8.00;6.95;;;-0.60;99.90;;;;;;5065587;28;20582;-71
2022/03/07 06:07:35;;;;;;;7.60;6.20;;;-0.50;99.90;;;;;;5065201;28;20056;-70
2022/03/07 06:10:01;;;;;;;7.35;6.30;;;-0.60;99.90;;;;;;5064938;28;20048;-71
2022/03/07 06:12:26;;;;;;;7.65;6.15;;;-0.60;99.90;;;;;;5064578;28;20040;-71
2022/03/07 06:14:52;;;;;;;9.55;6.68;;;-0.30;99.90;;;;;;5065079;28;20039;-70
2022/03/07 06:17:18;;;;;;;11.38;6.65;;;-0.50;99.90;;;;;;5065001;28;20037;-71
2022/03/07 06:19:44;;;;;;;6.85;5.88;;;-0.50;99.90;;;;;;5066359;28;20036;-71
2022/03/07 06:22:09;;;;;;;9.02;6.82;;;-0.50;99.90;;;;;;5064359;28;20543;-70
2022/03/07 06:24:35;;;;;;;9.95;6.88;;;-0.50;99.90;;;;;;5061933;28;20171;-71
2022/03/07 06:27:01;;;;;;;9.32;6.75;;;-0.40;99.90;;;;;;5061635;28;20140;-71
2022/03/07 06:29:28;;;;;;;8.55;6.60;;;-0.50;99.90;;;;;;5062482;28;20115;-71
2022/03/07 06:31:55;;;;;;;10.60;7.57;;;-0.50;99.90;;;;;;5062144;28;20043;-70
2022/03/07 06:34:20;;;;;;;8.88;7.15;;;-0.40;99.90;;;;;;5066314;28;20052;-71
2022/03/07 06:36:46;;;;;;;9.20;7.00;;;-0.30;99.90;;;;;;5065231;28;20047;-71
2022/03/07 06:39:12;;;;;;;7.30;6.50;;;-0.30;99.90;;;;;;5063345;28;20115;-71
2022/03/07 06:41:37;;;;;;;7.57;6.68;;;-0.20;99.90;;;;;;5066480;28;20042;-71
2022/03/07 06:44:03;;;;;;;7.55;6.20;;;-0.20;99.90;;;;;;5065000;28;20052;-71
2022/03/07 06:46:29;;;;;;;9.55;6.13;;;-0.10;99.90;;;;;;5064643;28;20043;-71
2022/03/07 06:48:55;;;;;;;9.73;7.22;;;-0.10;99.90;;;;;;5065366;28;20052;-71
2022/03/07 06:51:20;;;;;;;9.55;7.43;;;0.00;99.90;;;;;;5086623;28;20138;-71
2022/03/07 06:53:46;;;;;;;8.48;7.28;;;0.10;99.90;;;;;;5067573;28;20094;-71
2022/03/07 06:56:12;;;;;;;13.73;7.97;;;0.20;99.90;;;;;;5068447;28;20051;-71
2022/03/07 06:58:37;;;;;;;10.77;7.43;;;0.30;99.90;;;;;;5065179;28;20037;-71
2022/03/07 07:01:03;;;;;;;10.90;7.38;;;0.40;99.90;;;;;;5065260;28;20043;-71
2022/03/07 07:03:28;;;;;;;10.80;7.22;;;0.60;99.90;;;;;;5065711;28;20043;-71
2022/03/07 07:05:54;;;;;;;7.55;5.90;;;0.70;99.90;;;;;;5064304;28;20064;-71
2022/03/07 07:08:19;;;;;;;8.20;6.05;;;0.80;99.90;;;;;;5066542;28;20045;-72
2022/03/07 07:10:45;;;;;;;10.40;6.07;;;1.00;99.90;;;;;;5066227;28;20102;-71
2022/03/07 07:13:14;;;;;;;8.60;6.00;;;1.20;99.90;;;;;;5066840;28;20900;-71
2022/03/07 07:15:41;;;;;;;17.77;8.25;;;1.30;99.90;;;;;;5065568;28;20040;-71
2022/03/07 07:18:07;;;;;;;7.82;5.70;;;1.40;99.90;;;;;;5067044;28;20034;-72
2022/03/07 07:20:32;;;;;;;10.35;6.57;;;1.40;99.90;;;;;;5067306;28;20040;-71
2022/03/07 07:22:58;;;;;;;9.45;5.65;;;1.50;99.90;;;;;;5067138;28;20394;-71
2022/03/07 07:25:24;;;;;;;9.05;5.00;;;1.70;99.90;;;;;;5067049;28;20134;-71
2022/03/07 07:27:50;;;;;;;7.95;5.03;;;1.90;99.90;;;;;;5096950;28;20211;-71
2022/03/07 07:30:15;;;;;;;11.80;5.80;;;2.00;99.90;;;;;;5068316;28;20051;-72
2022/03/07 07:32:41;;;;;;;7.93;6.57;;;2.10;99.90;;;;;;5063716;28;20127;-71
2022/03/07 07:35:08;;;;;;;7.15;5.25;;;2.00;99.90;;;;;;5067664;28;20032;-72
2022/03/07 07:37:34;;;;;;;6.70;5.07;;;2.00;99.90;;;;;;5068303;28;20047;-71
2022/03/07 07:39:59;;;;;;;8.25;6.20;;;2.00;99.90;;;;;;5067764;28;20040;-71
2022/03/07 07:42:25;;;;;;;8.93;6.05;;;2.10;99.90;;;;;;5066950;28;20506;-71
2022/03/07 07:44:51;;;;;;;9.88;6.20;;;2.20;99.90;;;;;;5066478;28;20502;-71
2022/03/07 07:47:16;;;;;;;7.47;6.28;;;2.20;99.90;;;;;;5066994;28;20029;-71
2022/03/07 07:49:42;;;;;;;12.10;6.82;;;2.20;99.90;;;;;;5067563;28;20044;-71
2022/03/07 07:52:08;;;;;;;13.27;7.65;;;2.20;99.90;;;;;;5066536;28;20040;-71
2022/03/07 07:54:34;;;;;;;10.93;6.30;;;2.30;99.90;;;;;;5065950;28;20048;-71
2022/03/07 07:57:02;;;;;;;8.57;6.53;;;2.40;99.90;;;;;;5091806;28;21210;-71
2022/03/07 07:59:27;;;;;;;9.40;6.72;;;2.50;99.90;;;;;;5067039;28;20045;-72
2022/03/07 08:01:53;;;;;;;12.35;6.78;;;2.50;99.90;;;;;;5065072;28;20038;-72
2022/03/07 08:04:19;;;;;;;8.00;6.10;;;2.60;99.90;;;;;;5067432;28;20563;-72
2022/03/07 08:06:44;;;;;;;13.27;7.07;;;2.70;99.90;;;;;;5063838;28;20080;-72
2022/03/07 08:09:10;;;;;;;10.13;6.90;;;2.80;99.90;;;;;;5063491;28;20055;-72
2022/03/07 08:11:36;;;;;;;12.88;7.32;;;2.90;99.90;;;;;;5063762;28;20593;-72
2022/03/07 08:14:01;;;;;;;10.18;6.70;;;3.00;99.90;;;;;;5079959;28;20063;-72
2022/03/07 08:16:27;;;;;;;11.07;7.80;;;3.00;99.90;;;;;;5062773;28;20036;-72
2022/03/07 08:18:52;;;;;;;12.38;6.75;;;3.10;99.90;;;;;;5067964;28;20048;-72
2022/03/07 08:21:21;;;;;;;14.38;8.25;;;3.20;99.90;;;;;;5063736;28;20047;-72
2022/03/07 08:23:47;;;;;;;9.60;7.20;;;3.30;99.90;;;;;;5064663;28;20047;-72
2022/03/07 08:26:13;;;;;;;8.88;7.07;;;3.40;99.90;;;;;;5081318;28;20498;-72
2022/03/07 08:28:38;;;;;;;9.88;6.78;;;3.50;99.90;;;;;;5066624;28;20048;-72
2022/03/07 08:31:04;;;;;;;10.20;7.13;;;3.60;99.90;;;;;;5064254;28;20048;-72
2022/03/07 08:33:31;;;;;;;13.05;7.13;;;3.60;99.90;;;;;;5061320;28;20053;-72
2022/03/07 08:35:58;;;;;;;9.40;6.45;;;3.70;99.90;;;;;;5062876;28;20090;-73
2022/03/07 08:38:23;;;;;;;10.10;6.50;;;3.80;99.90;;;;;;5088912;28;20045;-72
2022/03/07 08:40:49;;;;;;;8.98;5.18;;;3.90;99.90;;;;;;5063423;28;20033;-73
2022/03/07 08:43:14;;;;;;;10.07;7.13;;;4.00;99.90;;;;;;5063741;28;20121;-73
2022/03/07 08:45:40;;;;;;;8.90;5.88;;;4.10;99.90;;;;;;5066215;28;20036;-72
2022/03/07 08:48:05;;;;;;;10.10;5.57;;;4.20;99.90;;;;;;5063904;28;20037;-72
2022/03/07 08:50:31;;;;;;;8.68;5.32;;;4.30;99.90;;;;;;5064286;28;20051;-73
2022/03/07 08:52:57;;;;;;;8.80;6.43;;;4.50;99.90;;;;;;5064758;28;20051;-72
2022/03/07 08:55:22;;;;;;;9.40;4.97;;;4.60;99.90;;;;;;5060579;28;20151;-72
2022/03/07 08:57:48;;;;;;;9.23;4.30;;;4.60;99.90;;;;;;5061315;28;20573;-72
2022/03/07 09:00:15;;;;;;;5.20;4.00;;;4.80;99.90;;;;;;5063287;28;20032;-73
2022/03/07 09:02:40;;;;;;;18.90;4.97;;;4.90;99.90;;;;;;5066533;28;20067;-72
2022/03/07 09:05:07;;;;;;;7.00;4.18;;;5.10;99.90;;;;;;5068942;28;20556;-73
2022/03/07 09:07:32;;;;;;;9.73;5.30;;;5.30;99.90;;;;;;5065526;28;22098;-73
2022/03/07 09:09:58;;;;;;;10.93;5.55;;;5.50;99.90;;;;;;5066671;28;20037;-72
2022/03/07 09:12:27;;;;;;;8.30;4.72;;;5.60;99.90;;;;;;5070015;28;20044;-72
2022/03/07 09:15:01;;;;;;;8.65;4.07;;;5.70;99.90;;;;;;5091520;28;20052;-73
2022/03/07 09:17:27;;;;;;;9.05;4.60;;;5.90;99.90;;;;;;5067858;28;20171;-73
2022/03/07 09:19:58;;;;;;;6.63;4.03;;;6.10;99.90;;;;;;5068316;28;20127;-72
2022/03/07 09:22:25;;;;;;;8.75;4.68;;;6.20;99.90;;;;;;5068554;28;20044;-72
2022/03/07 09:24:51;;;;;;;6.93;3.92;;;6.30;99.90;;;;;;5066370;28;20052;-73
2022/03/07 09:27:17;;;;;;;5.82;3.47;;;6.50;99.90;;;;;;5068094;28;20041;-73
2022/03/07 09:29:43;;;;;;;7.70;3.35;;;6.50;99.90;;;;;;5065120;28;20094;-73
2022/03/07 09:32:08;;;;;;;7.32;4.03;;;6.60;99.90;;;;;;5067500;28;20033;-73
2022/03/07 09:34:35;;;;;;;4.18;3.10;;;6.70;99.90;;;;;;5067349;28;20409;-73
2022/03/07 09:37:04;;;;;;;7.05;2.75;;;6.90;99.90;;;;;;5069195;28;20036;-73
2022/03/07 09:39:31;;;;;;;7.80;3.60;;;6.90;99.90;;;;;;5068222;28;20068;-73
2022/03/07 09:41:58;;;;;;;6.47;2.90;;;7.00;99.90;;;;;;5067151;28;20048;-73
2022/03/07 09:44:24;;;;;;;4.90;2.72;;;7.10;99.90;;;;;;5067176;28;20040;-73
2022/03/07 09:46:50;;;;;;;8.63;3.08;;;7.10;99.90;;;;;;5066465;28;20066;-73
2022/03/07 09:49:20;;;;;;;6.38;2.78;;;7.10;99.90;;;;;;5067722;28;20049;-73
2022/03/07 09:51:45;;;;;;;5.75;2.47;;;7.20;99.90;;;;;;5070846;28;20036;-73
2022/03/07 09:54:11;;;;;;;5.40;3.03;;;7.20;99.90;;;;;;5069579;28;20040;-73
2022/03/07 09:56:37;;;;;;;6.93;2.70;;;7.30;99.90;;;;;;5068764;28;20047;-73
2022/03/07 09:59:03;;;;;;;5.97;3.00;;;7.30;99.90;;;;;;5066649;28;20075;-73
2022/03/07 10:01:29;;;;;;;6.25;1.88;;;7.40;99.90;;;;;;5066479;28;20098;-73
2022/03/07 10:04:12;;;;;;;7.80;2.83;;;7.30;99.90;;;;;;5031044;28;20040;-73
2022/03/07 10:06:47;;;;;;;7.28;2.55;;;7.40;99.90;;;;;;5066968;28;20119;-73
2022/03/07 10:09:25;;;;;;;5.75;1.95;;;7.60;99.90;;;;;;5068802;28;20400;-73
2022/03/07 10:11:56;;;;;;;3.67;2.10;;;7.30;99.90;;;;;;5065273;28;20116;-73
2022/03/07 10:14:45;;;;;;;3.97;2.33;;;7.20;99.90;;;;;;5062732;28;20862;-73
2022/03/07 10:17:21;;;;;;;4.97;1.77;;;7.10;99.90;;;;;;5066678;28;20075;-73
2022/03/07 10:19:49;;;;;;;4.90;1.92;;;7.00;99.90;;;;;;5065513;28;20086;-73
2022/03/07 10:22:22;;;;;;;4.32;2.05;;;6.80;99.90;;;;;;5071389;28;20044;-73
2022/03/07 10:24:57;;;;;;;3.15;1.90;;;7.00;99.90;;;;;;5068108;28;20032;-73
2022/03/07 10:27:28;;;;;;;4.47;2.45;;;7.10;99.90;;;;;;5067675;28;21596;-73
2022/03/07 10:29:53;;;;;;;5.13;2.35;;;6.90;99.90;;;;;;5064650;28;20094;-73
2022/03/07 10:32:20;;;;;;;5.28;2.83;;;7.10;99.90;;;;;;5065750;28;20032;-73
2022/03/07 10:34:46;;;;;;;3.75;2.05;;;7.20;99.90;;;;;;5066732;28;20421;-73
2022/03/07 10:37:12;;;;;;;8.55;2.92;;;7.30;99.90;;;;;;5066901;28;20083;-73
2022/03/07 10:39:45;;;;;;;10.15;2.70;;;7.20;99.90;;;;;;5080308;28;20075;-73
2022/03/07 10:42:18;;;;;;;5.35;2.10;;;7.30;99.90;;;;;;5067065;28;20036;-73
2022/03/07 10:44:44;;;;;;;7.65;2.80;;;7.30;99.90;;;;;;5065298;28;20070;-73
2022/03/07 10:47:16;;;;;;;6.80;2.33;;;7.00;99.90;;;;;;5064045;28;20063;-73
2022/03/07 10:49:54;;;;;;;8.20;2.30;;;6.90;99.90;;;;;;5065614;28;20141;-73
2022/03/07 10:52:21;;;;;;;4.43;2.28;;;7.00;99.90;;;;;;5066683;28;20045;-72
2022/03/07 10:54:49;;;;;;;4.97;1.77;;;6.90;99.90;;;;;;5064299;28;20055;-72
2022/03/07 10:57:21;;;;;;;5.53;2.20;;;6.90;99.90;;;;;;5067191;28;20067;-73
2022/03/07 10:59:47;;;;;;;6.07;1.60;;;7.00;99.90;;;;;;5067255;28;20076;-72
2022/03/07 11:02:17;;;;;;;4.00;2.00;;;6.90;99.90;;;;;;5065025;28;20040;-72
2022/03/07 11:04:45;;;;;;;4.63;1.83;;;6.60;99.90;;;;;;5067633;28;20029;-73
2022/03/07 11:07:12;;;;;;;3.47;2.25;;;6.70;99.90;;;;;;5069453;28;20041;-72
2022/03/07 11:09:39;;;;;;;5.30;1.80;;;6.80;99.90;;;;;;5066080;28;20037;-73
2022/03/07 11:12:09;;;;;;;6.55;2.42;;;6.80;99.90;;;;;;5065475;28;20036;-72
2022/03/07 11:14:35;;;;;;;7.95;2.15;;;6.90;99.90;;;;;;5069649;28;20107;-73
2022/03/07 11:17:02;;;;;;;4.55;2.10;;;7.00;99.90;;;;;;5082656;28;20047;-73
2022/03/07 11:19:28;;;;;;;9.30;1.65;;;7.30;99.90;;;;;;5068936;28;20143;-72
2022/03/07 11:21:56;;;;;;;2.42;1.35;;;7.40;98.40;;;;;;5072534;28;20037;-73
2022/03/07 11:24:24;;;;;;;2.60;1.10;;;7.40;96.70;;;;;;5064601;28;20051;-73
2022/03/07 11:26:54;;;;;;;2.17;0.95;;;7.40;98.40;;;;;;5066995;28;20083;-73
2022/03/07 11:29:38;;;;;;;4.32;1.40;;;7.40;95.90;;;;;;5064351;28;20048;-73
2022/03/07 11:32:08;;;;;;;3.75;1.45;;;7.60;97.40;;;;;;5063059;28;20107;-73
2022/03/07 11:34:35;;;;;;;4.13;1.83;;;7.60;96.30;;;;;;5064412;28;20249;-73
2022/03/07 11:37:02;;;;;;;4.13;1.85;;;7.70;99.10;;;;;;5063957;28;20040;-73
2022/03/07 11:39:35;;;;;;;3.40;1.75;;;7.80;99.90;;;;;;5064195;28;20036;-73
2022/03/07 11:42:34;;;;;;;5.10;1.50;;;7.60;99.90;;;;;;5062635;28;20040;-73
2022/03/07 11:45:16;;;;;;;3.53;0.93;;;7.90;99.40;;;;;;5063468;28;20036;-73
2022/03/07 11:47:43;;;;;;;2.47;0.80;;;7.90;95.20;;;;;;5062850;28;20085;-74
2022/03/07 11:50:09;;;;;;;4.28;0.77;;;8.10;93.90;;;;;;5062827;28;20048;-73
2022/03/07 11:52:35;;;;;;;3.25;1.02;;;8.10;93.80;;;;;;5066335;28;20442;-74
2022/03/07 11:55:12;;;;;;;2.22;0.80;;;8.00;94.10;;;;;;5065335;28;20101;-74
2022/03/07 11:57:44;;;;;;;2.97;0.70;;;7.80;93.40;;;;;;5063799;28;20507;-73
2022/03/07 12:00:12;;;;;;;2.28;1.20;;;7.70;93.50;;;;;;5067348;28;20054;-73
2022/03/07 12:02:47;;;;;;;3.05;1.20;;;7.50;93.80;;;;;;5063687;28;20051;-73
2022/03/07 12:05:21;;;;;;;3.17;0.80;;;7.40;93.50;;;;;;5066443;28;20134;-73
2022/03/07 12:07:47;;;;;;;2.97;0.65;;;7.60;92.20;;;;;;5065614;28;20032;-73
2022/03/07 12:10:13;;;;;;;2.72;0.85;;;7.60;93.10;;;;;;5066800;28;20476;-73
2022/03/07 12:12:39;;;;;;;2.03;0.80;;;7.70;92.40;;;;;;5063219;28;20502;-74
2022/03/07 12:15:10;;;;;;;2.10;0.70;;;8.00;94.30;;;;;;5067441;28;20032;-74
2022/03/07 12:17:36;;;;;;;1.25;0.68;;;8.00;90.90;;;;;;5067691;28;20036;-73
2022/03/07 12:20:03;;;;;;;2.78;0.63;;;8.10;87.50;;;;;;5066622;28;20036;-74
2022/03/07 12:22:31;;;;;;;2.58;0.40;;;8.20;88.30;;;;;;5066451;28;20128;-73
2022/03/07 12:25:06;;;;;;;1.17;0.40;;;8.10;80.00;;;;;;5066751;28;20049;-74
2022/03/07 12:27:37;;;;;;;1.25;0.50;;;8.20;80.30;;;;;;5065887;28;20047;-74
2022/03/07 12:30:05;;;;;;;2.15;0.50;;;8.30;81.70;;;;;;5066575;28;20079;-74
2022/03/07 12:32:30;;;;;;;1.00;0.30;;;8.20;78.90;;;;;;5067478;28;20716;-73
2022/03/07 12:34:56;;;;;;;1.67;0.40;;;8.30;80.10;;;;;;5065467;28;20041;-73
2022/03/07 12:37:22;;;;;;;1.50;0.50;;;8.40;82.20;;;;;;5066203;28;20487;-74
2022/03/07 12:39:53;;;;;;;1.58;0.30;;;8.30;73.90;;;;;;5070935;28;20047;-74
2022/03/07 12:42:22;;;;;;;1.98;0.50;;;8.50;78.30;;;;;;5069966;28;20063;-73
2022/03/07 12:44:48;;;;;;;1.73;0.40;;;8.50;79.70;;;;;;5068290;28;20036;-74
2022/03/07 12:47:15;;;;;;;0.73;0.30;;;8.40;75.40;;;;;;5072969;28;20476;-74
2022/03/07 12:49:40;;;;;;;1.17;0.40;;;8.40;79.60;;;;;;5070288;28;20052;-74
2022/03/07 12:52:08;;;;;;;2.05;0.50;;;8.40;74.20;;;;;;5067951;28;20052;-73